Fredericktown, Pennsylvania
Current Conditions -  °F | °C
As of 1:55 PM on Sunday 23 Nov 2014 (Local Time) from KAFJ Reporting Station
Few Clouds Few Clouds  
Wind Chill: 64°   Ceiling: Unl
Heat Index: 64°   Visibility: 10mi
Dew Point: 46°   Wind: 8mph
Humidity: 52%   Direction: 140°SE
Pressure: 29.94"   Gusts: NA
Location:  40°N, 80°W
Report Text: KAFJ 231855Z 14007KT 10SM FEW037 18/08 A2994 RMK AO1
Loading
Personal Weather Stations






























Interactive Weather Map New forecast layout! Learn more

10-Day Weather Forecast

Advertisements
Track Severe Weather on mobile